WAPP/AMQ METAR and TAF weather

Enter ICAO airport designator
Station Type Date Time Source
WAPP METAR 2020/02/16 13:30 UTC NOAA

WAPP 161330Z 02005KT 9999 FEW019 29/24 Q1010 NOSIG


Station Type Date Time Source
WAPP Decoded METAR 2020/02/16 13:30 UTC NOAA

Ambon / Pattimura, Indonesia (WAPP) 03-42S 128-05E 12M
Feb 16, 2020 - 08:30 AM EST / 2020.02.16 1330 UTC
Wind: from the NNE (020 degrees) at 6 MPH (5 KT):0
Visibility: greater than 7 mile(s):0
Sky conditions: mostly clear
Temperature: 84 F (29 C)
Dew Point: 75 F (24 C)
Relative Humidity: 74%
Pressure (altimeter): 29.83 in. Hg (1010 hPa)
ob: WAPP 161330Z 02005KT 9999 FEW019 29/24 Q1010 NOSIG
cycle: 13

Station Type Date Time Source
WAPP TAF 2015/06/30 00:57 UTC NOAA

TAF WAPP 302300Z 0100/0124 34006KT 9999 SCT018
TEMPO 0101/0104 7000 -RA BKN017
BECMG 0105/0107 21006KT
BECMG 0109/0111 32006KT

Example: see airport list